Time;durP1;ratioP1;P1;durP2;ratioP2;P2;SDS_P1;SDS_P2;PMS_P1;PMS_P2;Temp;Humidity;BMP_temperature;BMP_pressure;BME280_temperature;BME280_humidity;BME280_pressure;Samples;Min_cycle;Max_cycle;Signal;HPM_P1;HPM_P2
2023/08/27 00:00:23;;;;;;;2.47;1.70;;;14.90;99.90;;;;;;5013555;28;20045;-90
2023/08/27 00:02:49;;;;;;;2.80;1.52;;;14.90;99.90;;;;;;4998099;28;20437;-90
2023/08/27 00:05:14;;;;;;;3.35;1.80;;;14.80;99.90;;;;;;4998503;28;20038;-90
2023/08/27 00:07:40;;;;;;;3.38;2.00;;;14.80;99.90;;;;;;4998597;28;20021;-90
2023/08/27 00:10:06;;;;;;;2.70;1.50;;;14.80;99.90;;;;;;4998186;28;20479;-90
2023/08/27 00:12:32;;;;;;;3.50;2.20;;;14.80;99.90;;;;;;4997895;28;20037;-90
2023/08/27 00:14:57;;;;;;;3.90;1.60;;;14.70;99.90;;;;;;4997894;28;20418;-90
2023/08/27 00:17:23;;;;;;;5.40;1.52;;;14.60;99.90;;;;;;5005382;28;20066;-90
2023/08/27 00:19:48;;;;;;;3.88;2.17;;;14.60;99.90;;;;;;4997247;28;20084;-90
2023/08/27 00:22:15;;;;;;;2.95;1.60;;;14.60;99.90;;;;;;5000122;28;20398;-90
2023/08/27 00:24:40;;;;;;;2.45;1.48;;;14.60;99.90;;;;;;5002412;28;20022;-90
2023/08/27 00:27:06;;;;;;;2.60;1.55;;;14.60;99.90;;;;;;4991689;28;20387;-90
2023/08/27 00:29:32;;;;;;;2.40;1.50;;;14.60;99.90;;;;;;4999176;28;20030;-90
2023/08/27 00:31:57;;;;;;;2.63;1.65;;;14.60;99.90;;;;;;5008555;28;20029;-90
2023/08/27 00:34:32;;;;;;;5.05;2.03;;;14.60;99.90;;;;;;4997409;28;20569;-89
2023/08/27 00:36:58;;;;;;;3.15;1.75;;;14.60;99.90;;;;;;4985909;28;20076;-90
2023/08/27 00:39:23;;;;;;;2.85;1.67;;;14.60;99.90;;;;;;4998914;28;20038;-90
2023/08/27 00:41:49;;;;;;;2.10;1.45;;;14.60;99.90;;;;;;4997760;28;20440;-90
2023/08/27 00:44:14;;;;;;;2.20;1.60;;;14.50;99.90;;;;;;4999032;28;20040;-90
2023/08/27 00:46:40;;;;;;;2.47;1.70;;;14.60;99.90;;;;;;5002766;28;20037;-90
2023/08/27 00:49:05;;;;;;;11.43;2.42;;;14.60;99.90;;;;;;4997480;28;20141;-90
2023/08/27 00:51:32;;;;;;;2.95;1.85;;;14.60;99.90;;;;;;4996997;28;20631;-90
2023/08/27 00:53:58;;;;;;;2.53;1.38;;;14.70;99.90;;;;;;4991091;28;20033;-90
2023/08/27 00:56:24;;;;;;;5.65;1.40;;;14.70;99.90;;;;;;5011194;28;20045;-90
2023/08/27 00:58:50;;;;;;;2.40;1.40;;;14.70;99.90;;;;;;4996311;28;20121;-90
2023/08/27 01:01:18;;;;;;;3.88;1.63;;;14.70;99.90;;;;;;4992690;28;20482;-90
2023/08/27 01:03:44;;;;;;;3.42;1.70;;;14.70;99.90;;;;;;4996641;28;20029;-90
2023/08/27 01:06:10;;;;;;;3.00;1.80;;;14.70;99.90;;;;;;4997429;28;20041;-90
2023/08/27 01:08:38;;;;;;;2.75;1.48;;;14.70;99.90;;;;;;4996078;28;20022;-90
2023/08/27 01:11:28;;;;;;;2.30;1.35;;;14.70;99.90;;;;;;4989809;28;20125;-90
2023/08/27 01:14:03;;;;;;;5.78;1.42;;;14.80;99.90;;;;;;4994593;28;20030;-90
2023/08/27 01:16:29;;;;;;;2.05;1.27;;;14.70;99.90;;;;;;4989789;28;20032;-90
2023/08/27 01:18:56;;;;;;;2.70;1.17;;;14.70;99.90;;;;;;5012923;28;20074;-90
2023/08/27 01:21:25;;;;;;;2.85;1.40;;;14.70;99.90;;;;;;4997299;28;20101;-90
2023/08/27 01:23:51;;;;;;;3.33;1.60;;;14.70;99.90;;;;;;4995984;28;20085;-90
2023/08/27 01:26:20;;;;;;;2.45;1.73;;;14.70;99.90;;;;;;4997800;28;20026;-90
2023/08/27 01:28:51;;;;;;;3.13;1.25;;;14.70;99.90;;;;;;4994589;28;20498;-89
2023/08/27 01:31:21;;;;;;;4.88;1.40;;;14.70;99.90;;;;;;4997428;28;20117;-90
2023/08/27 01:33:50;;;;;;;4.63;1.00;;;14.70;99.90;;;;;;4986453;28;20038;-90
2023/08/27 01:36:17;;;;;;;3.30;1.30;;;14.70;99.90;;;;;;4994716;28;20038;-90
2023/08/27 01:38:43;;;;;;;4.13;1.02;;;14.60;99.90;;;;;;4990215;28;20041;-90
2023/08/27 01:41:08;;;;;;;3.55;1.20;;;14.60;99.90;;;;;;4996661;28;20025;-90
2023/08/27 01:43:34;;;;;;;2.20;1.27;;;14.50;99.90;;;;;;4992956;28;20113;-90
2023/08/27 01:45:59;;;;;;;5.32;1.20;;;14.50;99.90;;;;;;4986881;28;20028;-90
2023/08/27 01:48:25;;;;;;;3.17;1.10;;;14.50;99.90;;;;;;5017829;28;20037;-89
2023/08/27 01:50:50;;;;;;;2.30;1.17;;;14.40;99.90;;;;;;4996379;28;20025;-88
2023/08/27 01:53:16;;;;;;;2.08;1.00;;;14.40;99.90;;;;;;5014084;28;20033;-90
2023/08/27 01:55:41;;;;;;;2.70;0.90;;;14.30;99.90;;;;;;5013018;28;20061;-90
2023/08/27 01:58:07;;;;;;;5.75;1.23;;;14.30;99.90;;;;;;5013650;28;20105;-90
2023/08/27 02:00:32;;;;;;;3.20;1.33;;;14.20;99.90;;;;;;5004882;28;20129;-90
2023/08/27 02:02:58;;;;;;;2.20;1.05;;;14.10;99.90;;;;;;5021730;28;20101;-90
2023/08/27 02:05:23;;;;;;;2.90;1.27;;;14.10;99.90;;;;;;4996604;28;20022;-90
2023/08/27 02:07:49;;;;;;;3.13;1.48;;;14.00;99.90;;;;;;4995819;28;20030;-90
2023/08/27 02:10:14;;;;;;;2.17;1.00;;;14.00;99.90;;;;;;4996194;28;20022;-89
2023/08/27 02:12:40;;;;;;;5.55;1.17;;;13.90;99.90;;;;;;4996065;28;20080;-90
2023/08/27 02:15:09;;;;;;;14.77;2.78;;;13.80;99.90;;;;;;4995962;28;20026;-90
2023/08/27 02:17:34;;;;;;;3.95;1.67;;;13.80;99.90;;;;;;4995847;28;20426;-89
2023/08/27 02:20:00;;;;;;;3.33;1.27;;;13.80;99.90;;;;;;4995493;28;20053;-89
2023/08/27 02:22:25;;;;;;;3.08;1.40;;;13.80;99.90;;;;;;4996702;28;20033;-90
2023/08/27 02:24:52;;;;;;;3.42;1.70;;;13.80;99.90;;;;;;4995491;28;20484;-89
2023/08/27 02:27:17;;;;;;;2.22;1.15;;;13.70;99.90;;;;;;4996069;28;20026;-90
2023/08/27 02:29:43;;;;;;;5.05;1.48;;;13.70;99.90;;;;;;4995795;28;20072;-90
2023/08/27 02:32:09;;;;;;;2.67;1.17;;;13.70;99.90;;;;;;4996368;28;20026;-90
2023/08/27 02:34:34;;;;;;;1.90;1.10;;;13.60;99.90;;;;;;4995485;28;20097;-89
2023/08/27 02:37:00;;;;;;;3.22;0.93;;;13.70;99.90;;;;;;4994719;28;20026;-90
2023/08/27 02:39:28;;;;;;;3.22;1.40;;;13.70;99.90;;;;;;4995871;28;20474;-90
2023/08/27 02:41:54;;;;;;;3.60;1.38;;;13.70;99.90;;;;;;4995572;28;20443;-89
2023/08/27 02:44:19;;;;;;;2.25;1.15;;;13.70;99.90;;;;;;4995738;28;20030;-90
2023/08/27 02:46:45;;;;;;;3.42;1.40;;;13.80;99.90;;;;;;4994080;28;20117;-89
2023/08/27 02:49:10;;;;;;;2.63;1.25;;;13.80;99.90;;;;;;4991803;28;20032;-90
2023/08/27 02:51:36;;;;;;;2.10;1.05;;;13.80;99.90;;;;;;5008640;28;20029;-89
2023/08/27 02:54:01;;;;;;;2.80;1.20;;;13.80;99.90;;;;;;4987436;28;20027;-90
2023/08/27 02:56:27;;;;;;;3.80;1.27;;;13.90;99.90;;;;;;4994519;28;20080;-90
2023/08/27 02:58:52;;;;;;;2.08;1.35;;;13.90;99.90;;;;;;4993765;28;20498;-90
2023/08/27 03:01:20;;;;;;;2.70;1.30;;;13.90;99.90;;;;;;4991781;28;20085;-89
2023/08/27 03:03:46;;;;;;;3.80;1.63;;;14.00;99.90;;;;;;4992139;28;20037;-89
2023/08/27 03:06:12;;;;;;;4.10;1.42;;;14.00;99.90;;;;;;4994571;28;20046;-90
2023/08/27 03:08:38;;;;;;;2.58;1.35;;;14.00;99.90;;;;;;4995322;28;20076;-90
2023/08/27 03:11:03;;;;;;;2.70;1.30;;;14.10;99.90;;;;;;4989446;28;20026;-89
2023/08/27 03:13:29;;;;;;;4.43;1.27;;;14.10;99.90;;;;;;4985847;28;20497;-90
2023/08/27 03:15:55;;;;;;;3.35;0.98;;;14.10;99.90;;;;;;4995176;28;20124;-89
2023/08/27 03:18:20;;;;;;;3.15;1.35;;;14.10;99.90;;;;;;4995363;28;20109;-94
2023/08/27 03:20:46;;;;;;;3.80;1.58;;;14.20;99.90;;;;;;4989492;28;20026;-92
2023/08/27 03:23:11;;;;;;;4.10;1.52;;;14.20;99.90;;;;;;4994911;28;20065;-92
2023/08/27 03:25:37;;;;;;;4.07;1.80;;;14.20;99.90;;;;;;4994798;28;20026;-92
2023/08/27 03:28:03;;;;;;;5.72;2.67;;;14.20;99.90;;;;;;4991698;28;20022;-91
2023/08/27 03:30:28;;;;;;;3.40;1.80;;;14.20;99.90;;;;;;4994862;28;20041;-92
2023/08/27 03:32:54;;;;;;;3.08;1.75;;;14.20;99.90;;;;;;4994947;28;20018;-91
2023/08/27 03:35:19;;;;;;;2.72;2.05;;;14.10;99.90;;;;;;5015720;28;20038;-92
2023/08/27 03:37:45;;;;;;;3.13;1.60;;;14.10;99.90;;;;;;4995562;28;20054;-90
2023/08/27 03:40:11;;;;;;;3.30;1.90;;;14.10;99.90;;;;;;5010933;28;20118;-90
2023/08/27 03:42:36;;;;;;;2.17;1.50;;;14.20;99.90;;;;;;4996005;28;20022;-91
2023/08/27 03:45:02;;;;;;;2.60;1.63;;;14.10;99.90;;;;;;4996298;28;20033;-92
2023/08/27 03:47:27;;;;;;;6.68;2.20;;;14.10;99.90;;;;;;5000520;28;20037;-91
2023/08/27 03:49:53;;;;;;;5.20;1.90;;;14.20;99.90;;;;;;5008743;28;20061;-90
2023/08/27 03:52:18;;;;;;;7.40;2.20;;;14.20;99.90;;;;;;4996948;28;20168;-91
2023/08/27 03:54:44;;;;;;;5.72;2.35;;;14.20;99.90;;;;;;5015230;28;20042;-92
2023/08/27 03:57:09;;;;;;;7.25;2.47;;;14.20;99.90;;;;;;5003038;28;20109;-91
2023/08/27 03:59:35;;;;;;;5.25;2.45;;;14.20;99.90;;;;;;5007458;28;20124;-92
2023/08/27 04:02:01;;;;;;;3.70;2.08;;;14.20;99.90;;;;;;4998808;28;20029;-90
2023/08/27 04:04:28;;;;;;;4.45;2.65;;;14.20;99.90;;;;;;4998730;28;20053;-92
2023/08/27 04:06:55;;;;;;;5.40;1.83;;;14.20;99.90;;;;;;4993965;28;20022;-92
2023/08/27 04:09:20;;;;;;;2.67;1.55;;;14.10;99.90;;;;;;4989626;28;20032;-92
2023/08/27 04:11:46;;;;;;;3.50;2.13;;;14.10;99.90;;;;;;4998263;28;20022;-90
2023/08/27 04:14:11;;;;;;;3.15;2.25;;;14.10;99.90;;;;;;4998325;28;20033;-93
2023/08/27 04:16:37;;;;;;;4.45;2.70;;;14.10;99.90;;;;;;4999139;28;20033;-93
2023/08/27 04:19:03;;;;;;;4.13;2.50;;;14.10;99.90;;;;;;4999522;28;20041;-93
2023/08/27 04:21:29;;;;;;;3.55;2.25;;;14.10;99.90;;;;;;4994462;28;20187;-92
2023/08/27 04:23:55;;;;;;;4.18;1.88;;;14.20;99.90;;;;;;4997606;28;20029;-92
2023/08/27 04:26:21;;;;;;;4.45;2.30;;;14.10;99.90;;;;;;4996992;28;20101;-92
2023/08/27 04:28:47;;;;;;;6.78;2.17;;;14.10;99.90;;;;;;4998220;28;20775;-93
2023/08/27 04:31:13;;;;;;;5.35;2.05;;;14.10;99.90;;;;;;5001654;28;20018;-92
2023/08/27 04:33:38;;;;;;;5.63;2.42;;;14.10;99.90;;;;;;4998229;28;20044;-92
2023/08/27 04:36:04;;;;;;;3.85;1.67;;;14.10;99.90;;;;;;4996694;28;20054;-92
2023/08/27 04:38:30;;;;;;;3.33;1.75;;;14.10;99.90;;;;;;4997042;28;20075;-91
2023/08/27 04:40:55;;;;;;;4.35;1.50;;;14.10;99.90;;;;;;4997291;28;20030;-92
2023/08/27 04:43:21;;;;;;;3.97;1.55;;;14.10;99.90;;;;;;4997750;28;20022;-91
2023/08/27 04:45:47;;;;;;;3.70;1.70;;;14.10;99.90;;;;;;4993097;28;20494;-91
2023/08/27 04:48:14;;;;;;;3.22;1.55;;;14.10;99.90;;;;;;4995518;28;20544;-91
2023/08/27 04:50:43;;;;;;;3.35;1.75;;;14.10;99.90;;;;;;4997479;28;20478;-91
2023/08/27 04:53:09;;;;;;;3.83;1.70;;;14.10;99.90;;;;;;4997425;28;20029;-90
2023/08/27 04:55:35;;;;;;;4.50;1.65;;;14.10;99.90;;;;;;4997261;28;20064;-91
2023/08/27 04:58:00;;;;;;;2.67;1.17;;;14.10;99.90;;;;;;5013791;28;20030;-91
2023/08/27 05:00:26;;;;;;;4.38;1.63;;;14.10;99.90;;;;;;4998062;28;20075;-90
2023/08/27 05:02:51;;;;;;;3.85;1.38;;;14.10;99.90;;;;;;4993785;28;20054;-91
2023/08/27 05:05:17;;;;;;;8.05;1.77;;;14.00;99.90;;;;;;5002764;28;20061;-90
2023/08/27 05:07:43;;;;;;;3.42;1.38;;;14.00;99.90;;;;;;4995193;28;20108;-91
2023/08/27 05:10:09;;;;;;;4.18;1.50;;;14.10;99.90;;;;;;4997777;28;20030;-90
2023/08/27 05:12:34;;;;;;;5.78;1.77;;;14.10;99.90;;;;;;4997229;28;20050;-91
2023/08/27 05:15:00;;;;;;;4.75;1.40;;;14.10;99.90;;;;;;4997905;28;20185;-89
2023/08/27 05:17:25;;;;;;;4.20;1.10;;;14.10;99.90;;;;;;4995994;28;20030;-90
2023/08/27 05:19:51;;;;;;;5.45;1.00;;;14.00;99.90;;;;;;4986397;28;20095;-90
2023/08/27 05:22:17;;;;;;;3.28;1.55;;;14.10;99.90;;;;;;5009621;28;20072;-90
2023/08/27 05:24:42;;;;;;;3.45;1.45;;;14.10;99.90;;;;;;4993892;28;20438;-92
2023/08/27 05:27:08;;;;;;;3.28;1.33;;;14.00;99.90;;;;;;5005863;28;20474;-91
2023/08/27 05:29:33;;;;;;;2.13;1.27;;;14.00;99.90;;;;;;4996966;28;20069;-91
2023/08/27 05:31:59;;;;;;;4.13;1.40;;;14.00;99.90;;;;;;4994137;28;20021;-91
2023/08/27 05:34:25;;;;;;;2.45;1.55;;;14.00;99.90;;;;;;4983837;28;20038;-91
2023/08/27 05:36:50;;;;;;;3.17;1.60;;;14.00;99.90;;;;;;4986083;28;20375;-91
2023/08/27 05:39:16;;;;;;;3.90;1.65;;;14.00;99.90;;;;;;4989824;28;20038;-91
2023/08/27 05:41:41;;;;;;;4.43;1.73;;;14.00;99.90;;;;;;4985409;28;20022;-90
2023/08/27 05:44:07;;;;;;;3.78;1.52;;;14.10;99.90;;;;;;5004130;28;20034;-89
2023/08/27 05:46:32;;;;;;;4.07;2.00;;;14.10;99.90;;;;;;5013198;28;20478;-90
2023/08/27 05:49:00;;;;;;;3.67;1.85;;;14.10;99.90;;;;;;4996805;28;20030;-90
2023/08/27 05:51:25;;;;;;;5.90;2.08;;;14.10;99.90;;;;;;4997231;28;20020;-89
2023/08/27 05:53:51;;;;;;;4.85;2.38;;;14.20;99.90;;;;;;4995845;28;20124;-90
2023/08/27 05:56:16;;;;;;;4.60;2.28;;;14.20;99.90;;;;;;4981481;28;20060;-89
2023/08/27 05:58:42;;;;;;;3.97;1.65;;;14.20;99.90;;;;;;5005535;28;20038;-90
2023/08/27 06:01:07;;;;;;;6.00;2.40;;;14.20;99.90;;;;;;4988393;28;20023;-90
2023/08/27 06:03:33;;;;;;;5.50;2.67;;;14.30;99.90;;;;;;4993332;28;20479;-90
2023/08/27 06:05:58;;;;;;;4.90;2.10;;;14.30;99.90;;;;;;4987772;28;20031;-91
2023/08/27 06:08:24;;;;;;;5.53;2.53;;;14.40;99.90;;;;;;4973915;28;20039;-90
2023/08/27 06:10:50;;;;;;;4.80;2.15;;;14.40;99.90;;;;;;4989582;28;20026;-90
2023/08/27 06:13:15;;;;;;;4.60;2.28;;;14.50;99.90;;;;;;4976571;28;20022;-90
2023/08/27 06:15:41;;;;;;;4.32;2.33;;;14.50;99.90;;;;;;4992893;28;20060;-91
2023/08/27 06:18:07;;;;;;;4.82;2.22;;;14.50;99.90;;;;;;4992298;28;20155;-90
2023/08/27 06:20:33;;;;;;;4.43;2.70;;;14.50;99.90;;;;;;4992973;28;20516;-91
2023/08/27 06:23:00;;;;;;;5.22;2.95;;;14.50;99.90;;;;;;4992815;28;20046;-91
2023/08/27 06:25:26;;;;;;;3.72;2.75;;;14.50;99.90;;;;;;5009965;28;20031;-90
2023/08/27 06:27:55;;;;;;;8.35;2.90;;;14.50;99.90;;;;;;4992637;28;20054;-91
2023/08/27 06:30:20;;;;;;;5.28;2.90;;;14.50;99.90;;;;;;4992198;28;20458;-90
2023/08/27 06:32:46;;;;;;;4.60;2.53;;;14.60;99.90;;;;;;4989472;28;20069;-90
2023/08/27 06:35:11;;;;;;;4.45;3.13;;;14.70;99.90;;;;;;5005348;28;20033;-91
2023/08/27 06:37:37;;;;;;;4.50;2.50;;;14.70;99.90;;;;;;5005423;28;20061;-92
2023/08/27 06:40:03;;;;;;;3.90;2.25;;;14.80;99.90;;;;;;4989673;28;20146;-91
2023/08/27 06:42:28;;;;;;;4.57;2.60;;;14.90;99.90;;;;;;4991326;28;20046;-91
2023/08/27 06:44:54;;;;;;;5.35;2.88;;;15.00;99.90;;;;;;4987411;28;20434;-92
2023/08/27 06:47:19;;;;;;;3.05;1.90;;;15.10;99.90;;;;;;4992692;28;20026;-90
2023/08/27 06:49:45;;;;;;;4.82;2.83;;;15.20;99.90;;;;;;4991417;28;20041;-90
2023/08/27 06:52:11;;;;;;;4.63;2.53;;;15.20;99.90;;;;;;4991977;28;20034;-90
2023/08/27 06:54:36;;;;;;;3.92;2.22;;;15.30;99.90;;;;;;4995935;28;20095;-89
2023/08/27 06:57:02;;;;;;;8.18;2.17;;;15.40;99.90;;;;;;5005155;28;20517;-90
2023/08/27 06:59:27;;;;;;;3.83;2.05;;;15.50;99.90;;;;;;4994202;28;20038;-89
2023/08/27 07:01:53;;;;;;;5.35;2.08;;;15.50;99.90;;;;;;4994626;28;20025;-89
2023/08/27 07:04:18;;;;;;;4.45;2.20;;;15.60;99.90;;;;;;4995714;28;20051;-90
2023/08/27 07:06:44;;;;;;;4.40;1.83;;;15.70;99.90;;;;;;4994800;28;20040;-89
2023/08/27 07:09:10;;;;;;;7.88;2.75;;;15.70;99.90;;;;;;5009315;28;20025;-90
2023/08/27 07:11:35;;;;;;;6.72;2.67;;;15.80;99.90;;;;;;5002244;28;20029;-89
2023/08/27 07:14:01;;;;;;;3.05;2.28;;;15.90;99.90;;;;;;5012402;28;20522;-89
2023/08/27 07:16:26;;;;;;;5.60;2.75;;;15.90;99.90;;;;;;4995280;28;20510;-88
2023/08/27 07:18:52;;;;;;;3.65;2.85;;;16.00;99.90;;;;;;4995512;28;20033;-89
2023/08/27 07:21:18;;;;;;;8.00;2.80;;;16.00;99.90;;;;;;4993379;28;20028;-88
2023/08/27 07:23:44;;;;;;;5.18;2.92;;;16.10;99.90;;;;;;4988076;28;20026;-89
2023/08/27 07:26:09;;;;;;;4.78;3.17;;;16.30;99.90;;;;;;4995895;28;20483;-90
2023/08/27 07:28:35;;;;;;;8.80;3.65;;;16.40;99.90;;;;;;4990557;28;20038;-89
2023/08/27 07:31:00;;;;;;;5.93;3.20;;;16.50;99.90;;;;;;4980748;28;20422;-89
2023/08/27 07:33:27;;;;;;;5.43;3.17;;;16.60;99.90;;;;;;4980513;28;20038;-89
2023/08/27 07:35:52;;;;;;;8.13;3.92;;;16.60;99.90;;;;;;4994395;28;20022;-89
2023/08/27 07:38:18;;;;;;;5.38;3.70;;;16.70;99.90;;;;;;4976001;28;20076;-88
2023/08/27 07:40:43;;;;;;;6.22;4.03;;;16.60;99.90;;;;;;4983023;28;20041;-89
2023/08/27 07:43:09;;;;;;;8.75;4.63;;;16.60;99.90;;;;;;4995402;28;20080;-89
2023/08/27 07:45:35;;;;;;;10.10;4.72;;;16.60;99.90;;;;;;4995175;28;20041;-88
2023/08/27 07:48:00;;;;;;;8.88;4.97;;;16.70;99.90;;;;;;4995041;28;20406;-88
2023/08/27 07:50:26;;;;;;;11.35;4.65;;;16.80;99.90;;;;;;4995382;28;20125;-88
2023/08/27 07:52:53;;;;;;;5.75;4.53;;;16.90;99.90;;;;;;5010435;28;20026;-89
2023/08/27 07:55:19;;;;;;;6.97;5.07;;;16.90;99.90;;;;;;4982205;28;20145;-87
2023/08/27 07:57:45;;;;;;;9.27;5.97;;;16.90;99.90;;;;;;4993630;28;20117;-86
2023/08/27 08:00:13;;;;;;;8.13;5.35;;;17.00;99.90;;;;;;4992102;28;20081;-87
2023/08/27 08:02:40;;;;;;;12.50;5.50;;;17.10;99.90;;;;;;5010648;28;20034;-87
2023/08/27 08:05:06;;;;;;;8.32;4.97;;;17.10;99.90;;;;;;5009899;28;20049;-87
2023/08/27 08:07:33;;;;;;;5.75;4.18;;;17.30;99.90;;;;;;4997815;28;20359;-86
2023/08/27 08:09:58;;;;;;;8.45;5.00;;;17.30;99.90;;;;;;4993479;28;20113;-87
2023/08/27 08:12:24;;;;;;;7.07;5.55;;;17.40;99.90;;;;;;4992030;28;20431;-86
2023/08/27 08:14:49;;;;;;;7.65;4.57;;;17.40;99.90;;;;;;4992723;28;20069;-86
2023/08/27 08:17:15;;;;;;;9.32;5.43;;;17.50;99.90;;;;;;4992118;28;20034;-86
2023/08/27 08:19:40;;;;;;;5.85;4.38;;;17.50;99.90;;;;;;4999281;28;20026;-89
2023/08/27 08:22:06;;;;;;;7.13;5.00;;;17.60;99.90;;;;;;4994500;28;20030;-89
2023/08/27 08:24:31;;;;;;;8.32;4.05;;;17.70;99.90;;;;;;5002572;28;20026;-88
2023/08/27 08:26:57;;;;;;;7.15;4.35;;;17.80;99.90;;;;;;4998295;28;20033;-88
2023/08/27 08:29:22;;;;;;;6.15;4.97;;;17.70;99.90;;;;;;4998041;28;20033;-89
2023/08/27 08:31:48;;;;;;;7.45;3.70;;;17.60;99.90;;;;;;4995275;28;20479;-88
2023/08/27 08:34:14;;;;;;;3.95;2.47;;;17.50;99.90;;;;;;4988534;28;20090;-88
2023/08/27 08:36:40;;;;;;;6.13;2.97;;;17.50;99.90;;;;;;4990226;28;20401;-87
2023/08/27 08:39:05;;;;;;;5.70;3.25;;;17.60;99.90;;;;;;4997095;28;20046;-88
2023/08/27 08:41:36;;;;;;;4.28;2.58;;;17.60;99.90;;;;;;4997217;28;20030;-88
2023/08/27 08:44:15;;;;;;;7.72;3.78;;;17.70;99.90;;;;;;5011371;28;20063;-88
2023/08/27 08:46:41;;;;;;;8.35;3.63;;;17.70;99.90;;;;;;4997386;28;20033;-89
2023/08/27 08:49:14;;;;;;;5.95;3.67;;;17.70;99.90;;;;;;4998124;28;20030;-89
2023/08/27 08:51:39;;;;;;;5.18;3.35;;;17.80;99.90;;;;;;4998039;28;20036;-91
2023/08/27 08:54:12;;;;;;;5.43;3.17;;;17.90;99.90;;;;;;4989147;28;20026;-87
2023/08/27 08:56:41;;;;;;;7.50;2.75;;;18.10;99.90;;;;;;4979586;28;20034;-89
2023/08/27 08:59:07;;;;;;;5.75;2.33;;;18.40;99.90;;;;;;4997309;28;20087;-89
2023/08/27 09:01:34;;;;;;;4.95;2.30;;;18.60;99.90;;;;;;5015262;28;20470;-89
2023/08/27 09:04:01;;;;;;;4.35;1.45;;;18.80;99.90;;;;;;4995296;28;20033;-89
2023/08/27 09:06:27;;;;;;;3.83;2.00;;;19.00;99.90;;;;;;4995617;28;20022;-90
2023/08/27 09:08:53;;;;;;;3.35;1.65;;;19.00;99.90;;;;;;4996665;28;20117;-89
2023/08/27 09:11:22;;;;;;;5.88;2.80;;;19.10;99.90;;;;;;4997439;28;20054;-89
2023/08/27 09:13:48;;;;;;;4.68;1.67;;;19.20;99.90;;;;;;5013116;28;20030;-88
2023/08/27 09:16:14;;;;;;;4.30;1.63;;;19.20;99.90;;;;;;5010946;28;20037;-90
2023/08/27 09:18:39;;;;;;;3.50;1.50;;;19.00;99.90;;;;;;4996654;28;20042;-96
2023/08/27 09:21:06;;;;;;;3.55;1.70;;;18.80;99.90;;;;;;4990738;28;20020;-88
2023/08/27 09:23:37;;;;;;;3.75;1.50;;;18.90;99.90;;;;;;4996750;28;20055;-89
2023/08/27 09:26:03;;;;;;;4.50;1.67;;;18.80;99.90;;;;;;4998807;28;20057;-89
2023/08/27 09:28:29;;;;;;;3.53;1.67;;;18.80;99.90;;;;;;4997386;28;20383;-89
2023/08/27 09:30:55;;;;;;;7.57;1.55;;;18.90;99.90;;;;;;4997406;28;20034;-88
2023/08/27 09:33:39;;;;;;;5.28;1.08;;;18.90;99.90;;;;;;4997630;28;20026;-90
2023/08/27 09:36:06;;;;;;;4.03;0.80;;;19.00;99.90;;;;;;4995605;28;20029;-90
2023/08/27 09:38:34;;;;;;;2.70;0.75;;;19.10;99.90;;;;;;4997149;28;20053;-89
2023/08/27 09:41:16;;;;;;;2.88;0.82;;;19.10;99.90;;;;;;4994264;28;20056;-88
2023/08/27 09:43:55;;;;;;;3.72;1.15;;;19.30;99.90;;;;;;4996505;28;20565;-89
2023/08/27 09:46:21;;;;;;;3.53;1.00;;;19.40;99.90;;;;;;4996247;28;20021;-88
2023/08/27 09:48:57;;;;;;;3.90;0.80;;;19.50;99.90;;;;;;4996882;28;20151;-88
2023/08/27 09:51:23;;;;;;;5.60;0.82;;;19.70;99.90;;;;;;5013749;28;20072;-90
2023/08/27 09:53:49;;;;;;;3.13;1.05;;;19.80;99.90;;;;;;4996631;28;20025;-90
2023/08/27 09:56:16;;;;;;;2.03;0.60;;;19.60;99.90;;;;;;5000376;28;21030;-96
2023/08/27 09:58:41;;;;;;;2.50;0.60;;;19.70;99.90;;;;;;5001492;28;20092;-88
2023/08/27 10:01:08;;;;;;;3.67;1.27;;;19.80;99.90;;;;;;4996645;28;20022;-90
2023/08/27 10:03:34;;;;;;;4.80;0.70;;;19.90;99.90;;;;;;4994926;28;20367;-90
2023/08/27 10:06:02;;;;;;;5.05;0.90;;;19.70;99.90;;;;;;4996710;28;20040;-89
2023/08/27 10:08:28;;;;;;;3.45;0.60;;;19.80;99.90;;;;;;4999504;28;20034;-88
2023/08/27 10:11:10;;;;;;;1.35;0.57;;;19.60;99.90;;;;;;4996379;28;20536;-89
2023/08/27 10:13:38;;;;;;;9.05;0.80;;;19.50;99.90;;;;;;4994778;28;20481;-89
2023/08/27 10:16:05;;;;;;;3.65;0.77;;;19.30;99.90;;;;;;4978948;28;20030;-88
2023/08/27 10:18:32;;;;;;;6.72;1.13;;;19.30;99.90;;;;;;4996601;28;20049;-89
2023/08/27 10:20:59;;;;;;;4.50;0.65;;;19.30;99.90;;;;;;4996453;28;20026;-89
2023/08/27 10:23:30;;;;;;;4.05;0.50;;;19.40;99.90;;;;;;4996454;28;20053;-88
2023/08/27 10:25:57;;;;;;;2.33;0.73;;;19.50;99.90;;;;;;4995417;28;20026;-89
2023/08/27 10:28:23;;;;;;;4.18;0.70;;;19.60;99.90;;;;;;4998189;28;20117;-89
2023/08/27 10:30:50;;;;;;;5.13;0.50;;;19.60;99.90;;;;;;4996161;28;20537;-89
2023/08/27 10:33:17;;;;;;;1.70;0.60;;;19.50;99.90;;;;;;4986747;28;20034;-89
2023/08/27 10:35:45;;;;;;;2.05;0.50;;;19.50;99.90;;;;;;4984488;28;20847;-89
2023/08/27 10:38:11;;;;;;;3.72;0.50;;;19.40;99.90;;;;;;4995522;28;20048;-89
2023/08/27 10:40:37;;;;;;;4.13;0.60;;;19.40;99.90;;;;;;4997907;28;20034;-89
2023/08/27 10:43:08;;;;;;;6.15;0.70;;;19.60;99.90;;;;;;4988173;28;20493;-89
2023/08/27 10:45:36;;;;;;;3.75;0.40;;;19.90;99.90;;;;;;4993372;28;20108;-89
2023/08/27 10:48:06;;;;;;;1.80;0.40;;;19.90;99.90;;;;;;4992335;28;20037;-89
2023/08/27 10:50:46;;;;;;;3.88;0.40;;;19.90;99.90;;;;;;5006951;28;20050;-88
2023/08/27 10:53:12;;;;;;;1.52;0.30;;;20.10;99.90;;;;;;4976541;28;20065;-88
2023/08/27 10:55:40;;;;;;;3.67;0.35;;;20.20;99.90;;;;;;4976952;28;20494;-89
2023/08/27 10:58:22;;;;;;;3.80;0.60;;;20.40;99.90;;;;;;4995078;28;20371;-87
2023/08/27 11:01:04;;;;;;;5.00;0.30;;;20.60;99.90;;;;;;4995771;28;20037;-89
2023/08/27 11:04:03;;;;;;;4.15;0.40;;;20.70;99.90;;;;;;4994527;28;20560;-89
2023/08/27 11:06:46;;;;;;;0.95;0.20;;;20.70;99.90;;;;;;4995728;28;20061;-87
2023/08/27 11:09:16;;;;;;;2.75;0.40;;;20.70;99.90;;;;;;4993338;28;20014;-88
2023/08/27 11:11:52;;;;;;;1.92;0.40;;;20.70;99.90;;;;;;4988838;28;20033;-89
2023/08/27 11:14:19;;;;;;;2.20;0.40;;;20.80;99.90;;;;;;4975930;28;20410;-89
2023/08/27 11:16:46;;;;;;;3.60;0.30;;;20.70;99.90;;;;;;4986051;28;20030;-90
2023/08/27 11:19:37;;;;;;;2.17;0.52;;;20.30;99.90;;;;;;4986754;28;20487;-90
2023/08/27 11:22:14;;;;;;;4.70;0.60;;;19.50;99.90;;;;;;5001426;28;20021;-90
2023/08/27 11:24:45;;;;;;;5.88;0.52;;;18.70;99.90;;;;;;4988363;28;20117;-90
2023/08/27 11:27:13;;;;;;;6.45;0.80;;;17.40;99.90;;;;;;4983180;28;20118;-93
2023/08/27 11:29:40;;;;;;;3.33;0.63;;;16.40;99.90;;;;;;5006434;28;20057;-93
2023/08/27 11:32:07;;;;;;;1.60;0.35;;;15.80;99.90;;;;;;4989371;28;20438;-93
2023/08/27 11:34:38;;;;;;;2.95;0.25;;;15.40;99.90;;;;;;4976124;28;20030;-92
2023/08/27 11:37:04;;;;;;;1.27;0.30;;;15.20;99.90;;;;;;4988644;28;20027;-91
2023/08/27 11:39:30;;;;;;;3.90;0.40;;;15.00;99.90;;;;;;4976931;28;20043;-92
2023/08/27 11:41:55;;;;;;;3.83;0.20;;;14.90;99.90;;;;;;4997919;28;20042;-89
2023/08/27 11:44:24;;;;;;;0.52;0.10;;;14.70;99.90;;;;;;4994338;28;20044;-91
2023/08/27 11:46:51;;;;;;;2.05;0.10;;;14.70;99.90;;;;;;4995089;28;20030;-90
2023/08/27 11:49:28;;;;;;;2.03;0.20;;;14.70;99.90;;;;;;4995862;28;20068;-93
2023/08/27 11:51:56;;;;;;;0.82;0.10;;;14.80;99.90;;;;;;4989307;28;20018;-92
2023/08/27 11:54:24;;;;;;;2.33;0.20;;;14.90;99.90;;;;;;4999487;28;20030;-92
2023/08/27 11:56:51;;;;;;;2.28;0.20;;;15.00;99.90;;;;;;4991739;28;20042;-91
2023/08/27 11:59:17;;;;;;;0.68;0.20;;;15.30;99.90;;;;;;4985989;28;20049;-91
2023/08/27 12:01:42;;;;;;;1.38;0.20;;;15.50;99.90;;;;;;4997396;28;20436;-89
2023/08/27 12:04:11;;;;;;;0.55;0.20;;;15.70;99.90;;;;;;4997885;28;20050;-90
2023/08/27 12:06:36;;;;;;;0.60;0.30;;;15.90;99.90;;;;;;4998922;28;20504;-91
2023/08/27 12:09:02;;;;;;;0.60;0.30;;;16.10;99.90;;;;;;4995163;28;20066;-88
2023/08/27 12:11:30;;;;;;;0.77;0.22;;;16.20;99.90;;;;;;4979727;28;20026;-91
2023/08/27 12:14:02;;;;;;;2.22;0.40;;;16.40;99.90;;;;;;4979271;28;20037;-89
2023/08/27 12:16:34;;;;;;;1.08;0.30;;;16.50;99.90;;;;;;4989530;28;20026;-90
2023/08/27 12:19:08;;;;;;;1.90;0.40;;;16.60;99.90;;;;;;4995868;28;20072;-89
2023/08/27 12:21:58;;;;;;;2.20;0.40;;;17.00;99.90;;;;;;4980464;28;20022;-90
2023/08/27 12:24:36;;;;;;;1.38;0.40;;;17.30;99.90;;;;;;4998657;28;20033;-89
2023/08/27 12:27:06;;;;;;;1.58;0.40;;;17.40;99.90;;;;;;4996466;28;20414;-89
2023/08/27 12:29:36;;;;;;;2.60;0.50;;;17.40;99.90;;;;;;4997307;28;20026;-90
2023/08/27 12:32:16;;;;;;;0.68;0.30;;;17.40;99.90;;;;;;4995601;28;20394;-88
2023/08/27 12:34:47;;;;;;;0.65;0.30;;;17.30;99.90;;;;;;5018634;28;20022;-89
2023/08/27 12:37:17;;;;;;;0.45;0.20;;;17.20;99.90;;;;;;4999051;28;20112;-89
2023/08/27 12:39:43;;;;;;;0.60;0.20;;;17.10;99.90;;;;;;4998168;28;20045;-89
2023/08/27 12:42:10;;;;;;;0.52;0.10;;;17.00;99.90;;;;;;5001290;28;20030;-89
2023/08/27 12:44:36;;;;;;;0.28;0.10;;;16.90;99.90;;;;;;4998532;28;20030;-89